Terminal Aerodrome Forecast
Issued by NWS

Home | Current Version | Previous Version | Text Only | Print | Product List | Glossary On
Versions: 1 2 3 4 5 6 7 8 9 10 11 12 13 14 15 16 17 18 19 20 21 22 23 24 25 26 27 28 29
000
FTUS41 KOKX 021400 AAB
TAFTEB
TAF AMD
KTEB 021437Z 0215/0312 30010G18KT P6SM FEW025 BKN050
     FM021600 31014G25KT P6SM SCT050
     FM022300 31010KT P6SM SKC
     FM030500 31006KT P6SM SCT250=

USA.gov is the U.S. government's official web portal to all federal, state and local government web resources and services.